HEI weather

Espacio Santa Fe Heliport
Cuajimalpa, Distrito Federal, Mexico

Public forecast

Using degrees Celsius for public forecast. Weather courtesy of forecast.io.

METAR (pilot weather report)

Closest report is Licenciado Benito Juarez International Airport, 12.6 nm (23.4 km) ENE. Retrieved 2019/08/24 03:40 UTC (0 seconds ago):

MMMX 240340Z 23004KT 8SM SCT020 BKN080 OVC200 17/11 A3036 NOSIG RMK 8/463 HZY BINOVC

TAF (pilot weather forecast)

Closest forecast is Licenciado Benito Juarez International Airport, 12.6 nm (23.4 km) ENE. Retrieved 2019/08/24 00:34 UTC (3 hours ago):

TAF COR MMMX 240027Z 2400/2506 03010KT P6SM -TSRA BKN020CB OVC080 TX25/2421Z TN16/2412Z TEMPO 2401/2405 4SM TSRA OVC020CB FM240600 00000KT 6SM -RA BKN020CB BKN080 PROB40 2406/2408 4SM RA FM241000 07006KT 5SM HZ SCT020 BKN080 TEMPO 2412/2415 BKN020 BKN080 FM241600 14005KT 6SM HZ SCT030 SCT080 PROB40 2421/2501 5SM TSRA BKN030CB